sensor_id;sensor_type;location;lat;lon;timestamp;P1;durP1;ratioP1;P2;durP2;ratioP2
2562;SDS011;1291;51.420;6.970;2022-08-21T00:01:45;8.55;;;4.88;;
2562;SDS011;1291;51.420;6.970;2022-08-21T00:04:14;9.48;;;5.25;;
2562;SDS011;1291;51.420;6.970;2022-08-21T00:06:43;8.35;;;5.13;;
2562;SDS011;1291;51.420;6.970;2022-08-21T00:09:08;11.27;;;5.40;;
2562;SDS011;1291;51.420;6.970;2022-08-21T00:11:37;11.77;;;5.80;;
2562;SDS011;1291;51.420;6.970;2022-08-21T00:14:05;9.15;;;4.80;;
2562;SDS011;1291;51.420;6.970;2022-08-21T00:16:32;11.18;;;5.53;;
2562;SDS011;1291;51.420;6.970;2022-08-21T00:18:58;10.38;;;4.93;;
2562;SDS011;1291;51.420;6.970;2022-08-21T00:21:23;6.45;;;4.20;;
2562;SDS011;1291;51.420;6.970;2022-08-21T00:23:50;7.82;;;4.80;;
2562;SDS011;1291;51.420;6.970;2022-08-21T00:26:15;8.38;;;4.72;;
2562;SDS011;1291;51.420;6.970;2022-08-21T00:28:41;11.23;;;5.28;;
2562;SDS011;1291;51.420;6.970;2022-08-21T00:31:06;8.57;;;5.03;;
2562;SDS011;1291;51.420;6.970;2022-08-21T00:33:32;9.95;;;4.25;;
2562;SDS011;1291;51.420;6.970;2022-08-21T00:35:59;9.03;;;5.20;;
2562;SDS011;1291;51.420;6.970;2022-08-21T00:38:25;7.95;;;4.68;;
2562;SDS011;1291;51.420;6.970;2022-08-21T00:40:52;7.47;;;4.25;;
2562;SDS011;1291;51.420;6.970;2022-08-21T00:43:21;6.32;;;3.92;;
2562;SDS011;1291;51.420;6.970;2022-08-21T00:45:56;9.20;;;4.50;;
2562;SDS011;1291;51.420;6.970;2022-08-21T00:48:23;9.85;;;4.72;;
2562;SDS011;1291;51.420;6.970;2022-08-21T00:50:52;7.85;;;4.10;;
2562;SDS011;1291;51.420;6.970;2022-08-21T00:53:28;8.85;;;5.10;;
2562;SDS011;1291;51.420;6.970;2022-08-21T00:55:56;6.38;;;4.15;;
2562;SDS011;1291;51.420;6.970;2022-08-21T00:58:23;10.82;;;4.38;;
2562;SDS011;1291;51.420;6.970;2022-08-21T01:00:51;6.88;;;3.97;;
2562;SDS011;1291;51.420;6.970;2022-08-21T01:03:18;10.00;;;3.92;;
2562;SDS011;1291;51.420;6.970;2022-08-21T01:05:46;9.35;;;5.05;;
2562;SDS011;1291;51.420;6.970;2022-08-21T01:08:13;5.05;;;3.85;;
2562;SDS011;1291;51.420;6.970;2022-08-21T01:10:40;6.75;;;4.07;;
2562;SDS011;1291;51.420;6.970;2022-08-21T01:13:06;7.43;;;4.43;;
2562;SDS011;1291;51.420;6.970;2022-08-21T01:15:34;11.25;;;4.22;;
2562;SDS011;1291;51.420;6.970;2022-08-21T01:18:03;6.22;;;4.65;;
2562;SDS011;1291;51.420;6.970;2022-08-21T01:20:33;6.18;;;4.15;;
2562;SDS011;1291;51.420;6.970;2022-08-21T01:23:01;9.48;;;4.60;;
2562;SDS011;1291;51.420;6.970;2022-08-21T01:25:27;10.40;;;4.60;;
2562;SDS011;1291;51.420;6.970;2022-08-21T01:27:52;9.38;;;4.68;;
2562;SDS011;1291;51.420;6.970;2022-08-21T01:30:20;9.85;;;5.47;;
2562;SDS011;1291;51.420;6.970;2022-08-21T01:32:49;7.25;;;4.50;;
2562;SDS011;1291;51.420;6.970;2022-08-21T01:35:16;8.13;;;4.53;;
2562;SDS011;1291;51.420;6.970;2022-08-21T01:37:44;8.00;;;5.05;;
2562;SDS011;1291;51.420;6.970;2022-08-21T01:40:11;9.70;;;5.07;;
2562;SDS011;1291;51.420;6.970;2022-08-21T01:42:37;10.13;;;4.80;;
2562;SDS011;1291;51.420;6.970;2022-08-21T01:45:06;8.00;;;5.25;;
2562;SDS011;1291;51.420;6.970;2022-08-21T01:47:32;9.55;;;5.80;;
2562;SDS011;1291;51.420;6.970;2022-08-21T01:49:58;10.73;;;5.43;;
2562;SDS011;1291;51.420;6.970;2022-08-21T01:52:23;10.52;;;6.35;;
2562;SDS011;1291;51.420;6.970;2022-08-21T01:54:49;8.57;;;5.88;;
2562;SDS011;1291;51.420;6.970;2022-08-21T01:57:14;10.13;;;5.72;;
2562;SDS011;1291;51.420;6.970;2022-08-21T01:59:40;10.13;;;6.10;;
2562;SDS011;1291;51.420;6.970;2022-08-21T02:02:06;9.82;;;5.38;;
2562;SDS011;1291;51.420;6.970;2022-08-21T02:04:32;8.05;;;5.35;;
2562;SDS011;1291;51.420;6.970;2022-08-21T02:06:57;10.50;;;6.15;;
2562;SDS011;1291;51.420;6.970;2022-08-21T02:09:24;8.85;;;5.45;;
2562;SDS011;1291;51.420;6.970;2022-08-21T02:11:50;11.98;;;5.55;;
2562;SDS011;1291;51.420;6.970;2022-08-21T02:14:16;8.23;;;5.40;;
2562;SDS011;1291;51.420;6.970;2022-08-21T02:16:43;9.93;;;4.93;;
2562;SDS011;1291;51.420;6.970;2022-08-21T02:19:09;7.35;;;4.70;;
2562;SDS011;1291;51.420;6.970;2022-08-21T02:21:35;7.38;;;4.50;;
2562;SDS011;1291;51.420;6.970;2022-08-21T02:24:01;7.07;;;4.28;;
2562;SDS011;1291;51.420;6.970;2022-08-21T02:26:30;6.07;;;4.10;;
2562;SDS011;1291;51.420;6.970;2022-08-21T02:28:55;8.20;;;4.60;;
2562;SDS011;1291;51.420;6.970;2022-08-21T02:31:21;7.30;;;4.03;;
2562;SDS011;1291;51.420;6.970;2022-08-21T02:33:46;10.07;;;4.60;;
2562;SDS011;1291;51.420;6.970;2022-08-21T02:36:12;7.25;;;4.18;;
2562;SDS011;1291;51.420;6.970;2022-08-21T02:38:38;8.20;;;4.22;;
2562;SDS011;1291;51.420;6.970;2022-08-21T02:41:07;8.10;;;4.00;;
2562;SDS011;1291;51.420;6.970;2022-08-21T02:43:35;5.72;;;3.60;;
2562;SDS011;1291;51.420;6.970;2022-08-21T02:46:00;5.70;;;3.65;;
2562;SDS011;1291;51.420;6.970;2022-08-21T02:48:29;10.20;;;3.75;;
2562;SDS011;1291;51.420;6.970;2022-08-21T02:50:57;3.85;;;3.33;;
2562;SDS011;1291;51.420;6.970;2022-08-21T02:53:25;4.93;;;3.38;;
2562;SDS011;1291;51.420;6.970;2022-08-21T02:55:51;6.07;;;3.40;;
2562;SDS011;1291;51.420;6.970;2022-08-21T02:58:19;6.05;;;4.30;;
2562;SDS011;1291;51.420;6.970;2022-08-21T03:00:56;7.10;;;3.85;;
2562;SDS011;1291;51.420;6.970;2022-08-21T03:03:23;8.57;;;3.47;;
2562;SDS011;1291;51.420;6.970;2022-08-21T03:05:49;8.18;;;4.22;;
2562;SDS011;1291;51.420;6.970;2022-08-21T03:08:16;5.93;;;3.13;;
2562;SDS011;1291;51.420;6.970;2022-08-21T03:10:45;6.95;;;3.63;;
2562;SDS011;1291;51.420;6.970;2022-08-21T03:13:12;8.45;;;4.10;;
2562;SDS011;1291;51.420;6.970;2022-08-21T03:15:42;6.70;;;3.05;;
2562;SDS011;1291;51.420;6.970;2022-08-21T03:18:08;5.32;;;3.60;;
2562;SDS011;1291;51.420;6.970;2022-08-21T03:20:34;9.82;;;4.28;;
2562;SDS011;1291;51.420;6.970;2022-08-21T03:23:01;6.07;;;3.65;;
2562;SDS011;1291;51.420;6.970;2022-08-21T03:25:28;6.25;;;4.13;;
2562;SDS011;1291;51.420;6.970;2022-08-21T03:27:57;7.47;;;3.92;;
2562;SDS011;1291;51.420;6.970;2022-08-21T03:30:23;8.05;;;4.13;;
2562;SDS011;1291;51.420;6.970;2022-08-21T03:32:48;8.77;;;4.20;;
2562;SDS011;1291;51.420;6.970;2022-08-21T03:35:14;11.65;;;4.97;;
2562;SDS011;1291;51.420;6.970;2022-08-21T03:37:39;8.30;;;3.85;;
2562;SDS011;1291;51.420;6.970;2022-08-21T03:40:06;11.68;;;3.97;;
2562;SDS011;1291;51.420;6.970;2022-08-21T03:42:33;17.75;;;4.80;;
2562;SDS011;1291;51.420;6.970;2022-08-21T03:44:59;7.28;;;4.82;;
2562;SDS011;1291;51.420;6.970;2022-08-21T03:47:26;11.57;;;5.35;;
2562;SDS011;1291;51.420;6.970;2022-08-21T03:49:52;6.70;;;5.18;;
2562;SDS011;1291;51.420;6.970;2022-08-21T03:52:18;10.35;;;5.13;;
2562;SDS011;1291;51.420;6.970;2022-08-21T03:54:44;9.75;;;5.95;;
2562;SDS011;1291;51.420;6.970;2022-08-21T03:57:09;8.77;;;6.13;;
2562;SDS011;1291;51.420;6.970;2022-08-21T03:59:35;11.13;;;6.05;;
2562;SDS011;1291;51.420;6.970;2022-08-21T04:02:02;11.15;;;5.80;;
2562;SDS011;1291;51.420;6.970;2022-08-21T04:04:29;9.65;;;6.00;;
2562;SDS011;1291;51.420;6.970;2022-08-21T04:06:56;10.18;;;6.57;;
2562;SDS011;1291;51.420;6.970;2022-08-21T04:09:22;14.35;;;7.03;;
2562;SDS011;1291;51.420;6.970;2022-08-21T04:11:52;12.15;;;7.07;;
2562;SDS011;1291;51.420;6.970;2022-08-21T04:14:18;11.10;;;6.53;;
2562;SDS011;1291;51.420;6.970;2022-08-21T04:16:44;9.13;;;6.45;;
2562;SDS011;1291;51.420;6.970;2022-08-21T04:19:11;13.27;;;6.85;;
2562;SDS011;1291;51.420;6.970;2022-08-21T04:21:38;10.32;;;6.93;;
2562;SDS011;1291;51.420;6.970;2022-08-21T04:24:04;13.38;;;7.85;;
2562;SDS011;1291;51.420;6.970;2022-08-21T04:26:30;12.48;;;7.50;;
2562;SDS011;1291;51.420;6.970;2022-08-21T04:28:56;11.45;;;7.75;;
2562;SDS011;1291;51.420;6.970;2022-08-21T04:31:23;11.52;;;7.78;;
2562;SDS011;1291;51.420;6.970;2022-08-21T04:33:50;11.00;;;7.30;;
2562;SDS011;1291;51.420;6.970;2022-08-21T04:36:16;15.60;;;8.70;;
2562;SDS011;1291;51.420;6.970;2022-08-21T04:38:42;11.98;;;8.32;;
2562;SDS011;1291;51.420;6.970;2022-08-21T04:41:07;13.70;;;8.73;;
2562;SDS011;1291;51.420;6.970;2022-08-21T04:43:33;12.48;;;9.23;;
2562;SDS011;1291;51.420;6.970;2022-08-21T04:45:59;14.00;;;9.00;;
2562;SDS011;1291;51.420;6.970;2022-08-21T04:48:25;11.85;;;8.60;;
2562;SDS011;1291;51.420;6.970;2022-08-21T04:50:53;13.40;;;8.25;;
2562;SDS011;1291;51.420;6.970;2022-08-21T04:54:05;12.60;;;8.40;;
2562;SDS011;1291;51.420;6.970;2022-08-21T04:56:11;11.45;;;8.18;;
2562;SDS011;1291;51.420;6.970;2022-08-21T04:58:40;15.13;;;9.80;;
2562;SDS011;1291;51.420;6.970;2022-08-21T05:01:09;13.45;;;9.10;;
2562;SDS011;1291;51.420;6.970;2022-08-21T05:03:42;15.32;;;9.63;;
2562;SDS011;1291;51.420;6.970;2022-08-21T05:06:09;13.93;;;10.20;;
2562;SDS011;1291;51.420;6.970;2022-08-21T05:08:37;16.30;;;10.40;;
2562;SDS011;1291;51.420;6.970;2022-08-21T05:11:04;17.35;;;11.95;;
2562;SDS011;1291;51.420;6.970;2022-08-21T05:13:30;15.32;;;12.07;;
2562;SDS011;1291;51.420;6.970;2022-08-21T05:15:56;14.38;;;11.82;;
2562;SDS011;1291;51.420;6.970;2022-08-21T05:18:23;17.50;;;12.48;;
2562;SDS011;1291;51.420;6.970;2022-08-21T05:20:49;18.13;;;12.38;;
2562;SDS011;1291;51.420;6.970;2022-08-21T05:23:15;18.83;;;12.40;;
2562;SDS011;1291;51.420;6.970;2022-08-21T05:25:41;18.42;;;12.23;;
2562;SDS011;1291;51.420;6.970;2022-08-21T05:28:07;23.67;;;13.20;;
2562;SDS011;1291;51.420;6.970;2022-08-21T05:30:33;19.92;;;13.65;;
2562;SDS011;1291;51.420;6.970;2022-08-21T05:33:00;17.23;;;11.80;;
2562;SDS011;1291;51.420;6.970;2022-08-21T05:35:27;17.67;;;12.00;;
2562;SDS011;1291;51.420;6.970;2022-08-21T05:37:54;16.80;;;12.02;;
2562;SDS011;1291;51.420;6.970;2022-08-21T05:40:20;15.88;;;11.95;;
2562;SDS011;1291;51.420;6.970;2022-08-21T05:42:46;12.00;;;10.55;;
2562;SDS011;1291;51.420;6.970;2022-08-21T05:45:11;12.27;;;11.00;;
2562;SDS011;1291;51.420;6.970;2022-08-21T05:47:37;14.77;;;11.18;;
2562;SDS011;1291;51.420;6.970;2022-08-21T05:50:03;16.63;;;12.02;;
2562;SDS011;1291;51.420;6.970;2022-08-21T05:52:29;13.70;;;11.10;;
2562;SDS011;1291;51.420;6.970;2022-08-21T05:54:55;17.63;;;11.02;;
2562;SDS011;1291;51.420;6.970;2022-08-21T05:57:21;16.27;;;11.50;;
2562;SDS011;1291;51.420;6.970;2022-08-21T05:59:47;15.40;;;11.75;;
2562;SDS011;1291;51.420;6.970;2022-08-21T06:02:12;16.38;;;12.75;;
2562;SDS011;1291;51.420;6.970;2022-08-21T06:04:41;18.30;;;11.82;;
2562;SDS011;1291;51.420;6.970;2022-08-21T06:07:06;16.35;;;11.90;;
2562;SDS011;1291;51.420;6.970;2022-08-21T06:09:33;14.80;;;10.65;;
2562;SDS011;1291;51.420;6.970;2022-08-21T06:12:05;16.10;;;10.88;;
2562;SDS011;1291;51.420;6.970;2022-08-21T06:14:35;16.42;;;11.60;;
2562;SDS011;1291;51.420;6.970;2022-08-21T06:17:04;15.45;;;11.48;;
2562;SDS011;1291;51.420;6.970;2022-08-21T06:19:36;18.73;;;9.98;;
2562;SDS011;1291;51.420;6.970;2022-08-21T06:22:02;12.75;;;9.82;;
2562;SDS011;1291;51.420;6.970;2022-08-21T06:24:27;14.25;;;8.75;;
2562;SDS011;1291;51.420;6.970;2022-08-21T06:26:53;16.65;;;9.50;;
2562;SDS011;1291;51.420;6.970;2022-08-21T06:29:19;14.73;;;9.18;;
2562;SDS011;1291;51.420;6.970;2022-08-21T06:31:48;15.70;;;8.23;;
2562;SDS011;1291;51.420;6.970;2022-08-21T06:34:15;14.70;;;8.65;;
2562;SDS011;1291;51.420;6.970;2022-08-21T06:36:41;13.30;;;8.45;;
2562;SDS011;1291;51.420;6.970;2022-08-21T06:39:06;12.18;;;8.18;;
2562;SDS011;1291;51.420;6.970;2022-08-21T06:41:32;13.90;;;8.50;;
2562;SDS011;1291;51.420;6.970;2022-08-21T06:43:58;15.30;;;8.98;;
2562;SDS011;1291;51.420;6.970;2022-08-21T06:46:24;13.20;;;8.48;;
2562;SDS011;1291;51.420;6.970;2022-08-21T06:48:51;11.88;;;8.20;;
2562;SDS011;1291;51.420;6.970;2022-08-21T06:51:17;14.82;;;9.38;;
2562;SDS011;1291;51.420;6.970;2022-08-21T06:53:43;14.18;;;8.48;;
2562;SDS011;1291;51.420;6.970;2022-08-21T06:56:08;11.63;;;8.40;;
2562;SDS011;1291;51.420;6.970;2022-08-21T06:58:34;12.38;;;7.50;;
2562;SDS011;1291;51.420;6.970;2022-08-21T07:00:59;12.25;;;6.93;;
2562;SDS011;1291;51.420;6.970;2022-08-21T07:03:27;11.75;;;6.75;;
2562;SDS011;1291;51.420;6.970;2022-08-21T07:05:55;15.27;;;7.32;;
2562;SDS011;1291;51.420;6.970;2022-08-21T07:08:21;11.07;;;6.70;;
2562;SDS011;1291;51.420;6.970;2022-08-21T07:10:47;10.63;;;6.65;;
2562;SDS011;1291;51.420;6.970;2022-08-21T07:13:14;13.50;;;7.15;;
2562;SDS011;1291;51.420;6.970;2022-08-21T07:15:40;13.00;;;7.45;;
2562;SDS011;1291;51.420;6.970;2022-08-21T07:18:05;10.38;;;6.25;;
2562;SDS011;1291;51.420;6.970;2022-08-21T07:20:31;12.27;;;5.95;;
2562;SDS011;1291;51.420;6.970;2022-08-21T07:22:57;9.98;;;6.38;;
2562;SDS011;1291;51.420;6.970;2022-08-21T07:25:26;10.38;;;6.47;;
2562;SDS011;1291;51.420;6.970;2022-08-21T07:27:51;9.98;;;6.57;;
2562;SDS011;1291;51.420;6.970;2022-08-21T07:30:17;12.48;;;6.70;;
2562;SDS011;1291;51.420;6.970;2022-08-21T07:32:42;11.88;;;6.78;;
2562;SDS011;1291;51.420;6.970;2022-08-21T07:35:09;10.82;;;5.88;;
2562;SDS011;1291;51.420;6.970;2022-08-21T07:37:34;14.15;;;6.30;;
2562;SDS011;1291;51.420;6.970;2022-08-21T07:40:00;11.90;;;6.32;;
2562;SDS011;1291;51.420;6.970;2022-08-21T07:42:25;9.40;;;6.65;;
2562;SDS011;1291;51.420;6.970;2022-08-21T07:44:51;12.82;;;6.13;;
2562;SDS011;1291;51.420;6.970;2022-08-21T07:47:17;9.45;;;5.90;;
2562;SDS011;1291;51.420;6.970;2022-08-21T07:49:45;12.52;;;6.10;;
2562;SDS011;1291;51.420;6.970;2022-08-21T07:52:11;12.20;;;6.22;;
2562;SDS011;1291;51.420;6.970;2022-08-21T07:54:37;11.85;;;5.47;;
2562;SDS011;1291;51.420;6.970;2022-08-21T07:57:02;12.98;;;5.32;;
2562;SDS011;1291;51.420;6.970;2022-08-21T07:59:28;9.60;;;5.32;;
2562;SDS011;1291;51.420;6.970;2022-08-21T08:01:53;6.78;;;4.03;;
2562;SDS011;1291;51.420;6.970;2022-08-21T08:04:19;6.53;;;3.45;;
2562;SDS011;1291;51.420;6.970;2022-08-21T08:06:45;14.10;;;3.10;;
2562;SDS011;1291;51.420;6.970;2022-08-21T08:09:10;8.15;;;2.83;;
2562;SDS011;1291;51.420;6.970;2022-08-21T08:11:36;4.78;;;2.55;;
2562;SDS011;1291;51.420;6.970;2022-08-21T08:14:06;5.85;;;2.90;;
2562;SDS011;1291;51.420;6.970;2022-08-21T08:16:31;6.53;;;2.50;;
2562;SDS011;1291;51.420;6.970;2022-08-21T08:18:57;5.47;;;2.45;;
2562;SDS011;1291;51.420;6.970;2022-08-21T08:21:23;6.80;;;2.28;;
2562;SDS011;1291;51.420;6.970;2022-08-21T08:23:48;7.35;;;2.25;;
2562;SDS011;1291;51.420;6.970;2022-08-21T08:26:14;4.60;;;2.20;;
2562;SDS011;1291;51.420;6.970;2022-08-21T08:28:40;4.68;;;2.53;;
2562;SDS011;1291;51.420;6.970;2022-08-21T08:31:06;5.80;;;2.13;;
2562;SDS011;1291;51.420;6.970;2022-08-21T08:33:32;10.13;;;3.13;;
2562;SDS011;1291;51.420;6.970;2022-08-21T08:35:57;5.95;;;2.15;;
2562;SDS011;1291;51.420;6.970;2022-08-21T08:38:23;5.80;;;2.08;;
2562;SDS011;1291;51.420;6.970;2022-08-21T08:40:55;6.43;;;2.53;;
2562;SDS011;1291;51.420;6.970;2022-08-21T08:43:33;3.53;;;2.08;;
2562;SDS011;1291;51.420;6.970;2022-08-21T08:46:02;6.88;;;2.30;;
2562;SDS011;1291;51.420;6.970;2022-08-21T08:51:59;6.20;;;2.38;;
2562;SDS011;1291;51.420;6.970;2022-08-21T08:54:05;7.22;;;2.28;;
2562;SDS011;1291;51.420;6.970;2022-08-21T08:56:43;4.35;;;2.00;;
2562;SDS011;1291;51.420;6.970;2022-08-21T08:59:22;7.47;;;2.72;;
2562;SDS011;1291;51.420;6.970;2022-08-21T09:01:52;4.45;;;2.42;;
2562;SDS011;1291;51.420;6.970;2022-08-21T09:04:20;3.83;;;1.90;;
2562;SDS011;1291;51.420;6.970;2022-08-21T09:09:40;5.00;;;1.88;;
2562;SDS011;1291;51.420;6.970;2022-08-21T09:15:23;2.78;;;1.58;;
2562;SDS011;1291;51.420;6.970;2022-08-21T09:21:16;6.85;;;2.10;;
2562;SDS011;1291;51.420;6.970;2022-08-21T09:24:02;6.25;;;1.75;;
2562;SDS011;1291;51.420;6.970;2022-08-21T09:26:49;4.55;;;2.05;;
2562;SDS011;1291;51.420;6.970;2022-08-21T09:29:33;4.00;;;2.10;;
2562;SDS011;1291;51.420;6.970;2022-08-21T09:32:03;5.47;;;1.80;;
2562;SDS011;1291;51.420;6.970;2022-08-21T09:34:31;5.93;;;2.70;;
2562;SDS011;1291;51.420;6.970;2022-08-21T09:36:57;3.38;;;1.70;;
2562;SDS011;1291;51.420;6.970;2022-08-21T09:39:24;5.10;;;1.50;;
2562;SDS011;1291;51.420;6.970;2022-08-21T09:42:11;2.17;;;1.60;;
2562;SDS011;1291;51.420;6.970;2022-08-21T09:45:00;2.70;;;1.80;;
2562;SDS011;1291;51.420;6.970;2022-08-21T09:47:32;4.00;;;1.50;;
2562;SDS011;1291;51.420;6.970;2022-08-21T09:50:07;4.22;;;1.88;;
2562;SDS011;1291;51.420;6.970;2022-08-21T09:52:35;4.65;;;1.48;;
2562;SDS011;1291;51.420;6.970;2022-08-21T09:55:07;4.53;;;1.48;;
2562;SDS011;1291;51.420;6.970;2022-08-21T09:58:01;7.03;;;1.75;;
2562;SDS011;1291;51.420;6.970;2022-08-21T10:00:31;2.75;;;1.58;;
2562;SDS011;1291;51.420;6.970;2022-08-21T10:03:09;7.82;;;2.15;;
2562;SDS011;1291;51.420;6.970;2022-08-21T10:05:37;3.30;;;1.77;;
2562;SDS011;1291;51.420;6.970;2022-08-21T10:08:03;3.55;;;2.05;;
2562;SDS011;1291;51.420;6.970;2022-08-21T10:10:30;3.30;;;1.58;;
2562;SDS011;1291;51.420;6.970;2022-08-21T10:18:41;3.53;;;1.00;;
2562;SDS011;1291;51.420;6.970;2022-08-21T10:21:18;1.42;;;1.20;;
2562;SDS011;1291;51.420;6.970;2022-08-21T10:40:34;6.85;;;1.58;;
2562;SDS011;1291;51.420;6.970;2022-08-21T10:46:07;2.80;;;1.38;;
2562;SDS011;1291;51.420;6.970;2022-08-21T10:48:58;2.58;;;1.30;;
2562;SDS011;1291;51.420;6.970;2022-08-21T10:51:37;6.55;;;2.03;;
2562;SDS011;1291;51.420;6.970;2022-08-21T10:56:58;4.47;;;1.40;;
2562;SDS011;1291;51.420;6.970;2022-08-21T10:59:38;2.25;;;1.35;;
2562;SDS011;1291;51.420;6.970;2022-08-21T11:02:17;3.40;;;1.27;;
2562;SDS011;1291;51.420;6.970;2022-08-21T11:07:54;3.63;;;1.35;;
2562;SDS011;1291;51.420;6.970;2022-08-21T11:13:13;4.28;;;1.70;;
2562;SDS011;1291;51.420;6.970;2022-08-21T11:16:00;3.80;;;1.42;;
2562;SDS011;1291;51.420;6.970;2022-08-21T11:21:27;2.45;;;1.30;;
2562;SDS011;1291;51.420;6.970;2022-08-21T11:29:38;3.00;;;1.20;;
2562;SDS011;1291;51.420;6.970;2022-08-21T11:32:14;1.85;;;1.15;;
2562;SDS011;1291;51.420;6.970;2022-08-21T11:43:48;4.10;;;1.85;;
2562;SDS011;1291;51.420;6.970;2022-08-21T11:46:39;3.30;;;1.30;;
2562;SDS011;1291;51.420;6.970;2022-08-21T11:50:02;6.22;;;2.08;;
2562;SDS011;1291;51.420;6.970;2022-08-21T11:52:23;3.63;;;1.35;;
2562;SDS011;1291;51.420;6.970;2022-08-21T12:01:03;2.83;;;1.30;;
2562;SDS011;1291;51.420;6.970;2022-08-21T12:03:43;3.85;;;1.30;;
2562;SDS011;1291;51.420;6.970;2022-08-21T12:06:35;4.45;;;1.50;;
2562;SDS011;1291;51.420;6.970;2022-08-21T12:09:03;3.55;;;0.98;;
2562;SDS011;1291;51.420;6.970;2022-08-21T12:11:31;4.63;;;1.48;;
2562;SDS011;1291;51.420;6.970;2022-08-21T12:16:38;7.13;;;2.15;;
2562;SDS011;1291;51.420;6.970;2022-08-21T12:21:53;7.50;;;2.03;;
2562;SDS011;1291;51.420;6.970;2022-08-21T12:30:35;2.28;;;2.00;;
2562;SDS011;1291;51.420;6.970;2022-08-21T12:33:04;6.95;;;1.35;;
2562;SDS011;1291;51.420;6.970;2022-08-21T12:35:51;5.05;;;1.50;;
2562;SDS011;1291;51.420;6.970;2022-08-21T12:38:32;3.30;;;1.58;;
2562;SDS011;1291;51.420;6.970;2022-08-21T12:41:16;3.90;;;1.65;;
2562;SDS011;1291;51.420;6.970;2022-08-21T12:44:07;4.55;;;1.55;;
2562;SDS011;1291;51.420;6.970;2022-08-21T12:46:39;1.95;;;1.40;;
2562;SDS011;1291;51.420;6.970;2022-08-21T12:51:54;3.40;;;1.45;;
2562;SDS011;1291;51.420;6.970;2022-08-21T12:54:26;2.10;;;1.60;;
2562;SDS011;1291;51.420;6.970;2022-08-21T12:57:03;3.70;;;1.40;;
2562;SDS011;1291;51.420;6.970;2022-08-21T12:59:31;5.30;;;1.38;;
2562;SDS011;1291;51.420;6.970;2022-08-21T13:01:58;2.60;;;1.20;;
2562;SDS011;1291;51.420;6.970;2022-08-21T13:04:35;3.45;;;1.50;;
2562;SDS011;1291;51.420;6.970;2022-08-21T13:07:05;5.97;;;1.58;;
2562;SDS011;1291;51.420;6.970;2022-08-21T13:09:36;2.45;;;1.10;;
2562;SDS011;1291;51.420;6.970;2022-08-21T13:12:12;1.90;;;1.20;;
2562;SDS011;1291;51.420;6.970;2022-08-21T13:14:41;2.88;;;1.30;;
2562;SDS011;1291;51.420;6.970;2022-08-21T13:17:10;4.05;;;1.80;;
2562;SDS011;1291;51.420;6.970;2022-08-21T13:19:36;4.97;;;1.75;;
2562;SDS011;1291;51.420;6.970;2022-08-21T13:22:02;3.03;;;1.48;;
2562;SDS011;1291;51.420;6.970;2022-08-21T13:24:29;2.90;;;1.50;;
2562;SDS011;1291;51.420;6.970;2022-08-21T13:26:58;4.03;;;1.60;;
2562;SDS011;1291;51.420;6.970;2022-08-21T13:29:28;3.63;;;2.00;;
2562;SDS011;1291;51.420;6.970;2022-08-21T13:32:02;3.08;;;1.40;;
2562;SDS011;1291;51.420;6.970;2022-08-21T13:34:31;2.25;;;1.48;;
2562;SDS011;1291;51.420;6.970;2022-08-21T13:37:06;4.47;;;1.50;;
2562;SDS011;1291;51.420;6.970;2022-08-21T13:39:33;2.40;;;1.30;;
2562;SDS011;1291;51.420;6.970;2022-08-21T13:42:00;1.63;;;1.20;;
2562;SDS011;1291;51.420;6.970;2022-08-21T13:44:35;2.65;;;1.40;;
2562;SDS011;1291;51.420;6.970;2022-08-21T13:47:07;3.17;;;1.48;;
2562;SDS011;1291;51.420;6.970;2022-08-21T13:49:36;2.72;;;1.58;;
2562;SDS011;1291;51.420;6.970;2022-08-21T13:52:05;4.97;;;1.70;;
2562;SDS011;1291;51.420;6.970;2022-08-21T13:54:40;3.33;;;1.35;;
2562;SDS011;1291;51.420;6.970;2022-08-21T13:57:23;4.10;;;1.55;;
2562;SDS011;1291;51.420;6.970;2022-08-21T14:00:09;2.90;;;1.27;;
2562;SDS011;1291;51.420;6.970;2022-08-21T14:02:41;5.30;;;1.50;;
2562;SDS011;1291;51.420;6.970;2022-08-21T14:05:19;3.38;;;1.10;;
2562;SDS011;1291;51.420;6.970;2022-08-21T14:07:48;4.75;;;1.45;;
2562;SDS011;1291;51.420;6.970;2022-08-21T14:10:17;6.35;;;1.27;;
2562;SDS011;1291;51.420;6.970;2022-08-21T14:12:51;2.45;;;1.23;;
2562;SDS011;1291;51.420;6.970;2022-08-21T14:15:30;2.85;;;1.40;;
2562;SDS011;1291;51.420;6.970;2022-08-21T14:18:14;2.72;;;1.30;;
2562;SDS011;1291;51.420;6.970;2022-08-21T14:20:41;2.05;;;1.23;;
2562;SDS011;1291;51.420;6.970;2022-08-21T14:23:07;4.78;;;2.10;;
2562;SDS011;1291;51.420;6.970;2022-08-21T14:25:42;2.90;;;1.00;;
2562;SDS011;1291;51.420;6.970;2022-08-21T14:28:29;1.35;;;0.98;;
2562;SDS011;1291;51.420;6.970;2022-08-21T14:31:16;2.58;;;1.23;;
2562;SDS011;1291;51.420;6.970;2022-08-21T14:33:43;4.82;;;1.40;;
2562;SDS011;1291;51.420;6.970;2022-08-21T14:36:09;2.33;;;1.00;;
2562;SDS011;1291;51.420;6.970;2022-08-21T14:38:35;2.13;;;1.33;;
2562;SDS011;1291;51.420;6.970;2022-08-21T14:41:12;3.90;;;1.20;;
2562;SDS011;1291;51.420;6.970;2022-08-21T14:43:43;2.33;;;1.33;;
2562;SDS011;1291;51.420;6.970;2022-08-21T14:46:11;4.30;;;1.30;;
2562;SDS011;1291;51.420;6.970;2022-08-21T14:48:38;3.63;;;1.35;;
2562;SDS011;1291;51.420;6.970;2022-08-21T14:51:04;2.28;;;1.20;;
2562;SDS011;1291;51.420;6.970;2022-08-21T14:53:30;2.72;;;1.65;;
2562;SDS011;1291;51.420;6.970;2022-08-21T14:55:55;5.35;;;1.42;;
2562;SDS011;1291;51.420;6.970;2022-08-21T14:58:37;4.00;;;1.17;;
2562;SDS011;1291;51.420;6.970;2022-08-21T15:01:06;3.10;;;1.33;;
2562;SDS011;1291;51.420;6.970;2022-08-21T15:03:33;3.45;;;1.30;;
2562;SDS011;1291;51.420;6.970;2022-08-21T15:06:00;2.95;;;1.38;;
2562;SDS011;1291;51.420;6.970;2022-08-21T15:08:28;4.40;;;1.30;;
2562;SDS011;1291;51.420;6.970;2022-08-21T15:10:54;3.08;;;1.33;;
2562;SDS011;1291;51.420;6.970;2022-08-21T15:13:20;7.13;;;2.17;;
2562;SDS011;1291;51.420;6.970;2022-08-21T15:15:47;5.65;;;1.70;;
2562;SDS011;1291;51.420;6.970;2022-08-21T15:18:14;4.53;;;1.45;;
2562;SDS011;1291;51.420;6.970;2022-08-21T15:20:40;1.95;;;1.08;;
2562;SDS011;1291;51.420;6.970;2022-08-21T15:23:06;3.45;;;1.05;;
2562;SDS011;1291;51.420;6.970;2022-08-21T15:25:33;5.05;;;1.40;;
2562;SDS011;1291;51.420;6.970;2022-08-21T15:27:59;3.40;;;1.15;;
2562;SDS011;1291;51.420;6.970;2022-08-21T15:30:25;2.67;;;1.20;;
2562;SDS011;1291;51.420;6.970;2022-08-21T15:32:51;3.10;;;1.48;;
2562;SDS011;1291;51.420;6.970;2022-08-21T15:35:16;2.70;;;1.30;;
2562;SDS011;1291;51.420;6.970;2022-08-21T15:37:43;3.13;;;1.52;;
2562;SDS011;1291;51.420;6.970;2022-08-21T15:40:08;1.75;;;1.17;;
2562;SDS011;1291;51.420;6.970;2022-08-21T15:42:38;1.90;;;1.20;;
2562;SDS011;1291;51.420;6.970;2022-08-21T15:45:04;3.72;;;1.58;;
2562;SDS011;1291;51.420;6.970;2022-08-21T15:47:32;1.63;;;1.10;;
2562;SDS011;1291;51.420;6.970;2022-08-21T15:50:00;3.20;;;1.33;;
2562;SDS011;1291;51.420;6.970;2022-08-21T15:52:25;3.35;;;1.38;;
2562;SDS011;1291;51.420;6.970;2022-08-21T15:54:51;3.65;;;1.15;;
2562;SDS011;1291;51.420;6.970;2022-08-21T15:57:18;2.38;;;1.42;;
2562;SDS011;1291;51.420;6.970;2022-08-21T15:59:47;4.82;;;1.42;;
2562;SDS011;1291;51.420;6.970;2022-08-21T16:02:20;9.00;;;1.60;;
2562;SDS011;1291;51.420;6.970;2022-08-21T16:04:48;5.47;;;1.60;;
2562;SDS011;1291;51.420;6.970;2022-08-21T16:07:14;2.90;;;1.25;;
2562;SDS011;1291;51.420;6.970;2022-08-21T16:09:40;3.05;;;1.45;;
2562;SDS011;1291;51.420;6.970;2022-08-21T16:12:06;2.17;;;1.27;;
2562;SDS011;1291;51.420;6.970;2022-08-21T16:14:34;2.95;;;1.40;;
2562;SDS011;1291;51.420;6.970;2022-08-21T16:17:03;3.17;;;1.20;;
2562;SDS011;1291;51.420;6.970;2022-08-21T16:19:30;5.55;;;1.58;;
2562;SDS011;1291;51.420;6.970;2022-08-21T16:21:56;3.25;;;1.60;;
2562;SDS011;1291;51.420;6.970;2022-08-21T16:24:21;4.15;;;1.70;;
2562;SDS011;1291;51.420;6.970;2022-08-21T16:26:47;3.85;;;1.55;;
2562;SDS011;1291;51.420;6.970;2022-08-21T16:29:14;3.35;;;1.40;;
2562;SDS011;1291;51.420;6.970;2022-08-21T16:31:39;4.68;;;1.52;;
2562;SDS011;1291;51.420;6.970;2022-08-21T16:34:05;5.20;;;1.50;;
2562;SDS011;1291;51.420;6.970;2022-08-21T16:36:31;3.25;;;1.48;;
2562;SDS011;1291;51.420;6.970;2022-08-21T16:38:57;2.83;;;1.63;;
2562;SDS011;1291;51.420;6.970;2022-08-21T16:41:31;5.40;;;1.83;;
2562;SDS011;1291;51.420;6.970;2022-08-21T16:43:58;4.28;;;1.92;;
2562;SDS011;1291;51.420;6.970;2022-08-21T16:46:25;3.83;;;1.80;;